Time;durP1;ratioP1;P1;durP2;ratioP2;P2;SDS_P1;SDS_P2;PMS_P1;PMS_P2;Temp;Humidity;BMP_temperature;BMP_pressure;BME280_temperature;BME280_humidity;BME280_pressure;Samples;Min_cycle;Max_cycle;Signal;HPM_P1;HPM_P2
2022/09/14 00:01:56;;;;;;;2.22;1.10;;;;;;;14.60;65.45;100225.47;5031516;28;20167;-76
2022/09/14 00:04:22;;;;;;;3.60;1.85;;;;;;;14.33;66.11;100183.69;5055391;28;20061;-76
2022/09/14 00:06:48;;;;;;;3.72;1.75;;;;;;;14.99;67.14;100353.25;5053237;28;20030;-81
2022/09/14 00:09:16;;;;;;;3.25;1.70;;;;;;;14.29;67.81;100221.59;5030936;28;20030;-80
2022/09/14 00:11:42;;;;;;;4.03;1.75;;;;;;;14.31;67.55;100277.00;5030058;28;20053;-80
2022/09/14 00:14:07;;;;;;;3.40;1.58;;;;;;;14.21;67.52;100241.09;5014695;28;20049;-80
2022/09/14 00:16:39;;;;;;;3.38;1.77;;;;;;;15.07;66.28;100361.03;5020090;28;20469;-82
2022/09/14 00:19:18;;;;;;;3.20;1.75;;;;;;;14.84;67.15;100351.75;5027697;28;20042;-79
2022/09/14 00:21:43;;;;;;;3.72;1.70;;;;;;;14.92;67.62;100371.00;5029069;28;20041;-80
2022/09/14 00:24:10;;;;;;;8.18;2.72;;;;;;;13.81;67.87;100200.44;5029191;28;20128;-79
2022/09/14 00:26:36;;;;;;;5.97;2.00;;;;;;;14.03;67.39;100226.47;5028997;28;20053;-79
2022/09/14 00:29:03;;;;;;;4.75;1.60;;;;;;;14.83;66.58;100323.63;5029246;28;20087;-80
2022/09/14 00:31:30;;;;;;;4.57;1.67;;;;;;;15.09;66.87;100375.97;5028076;28;20052;-78
2022/09/14 00:33:55;;;;;;;3.35;1.35;;;;;;;15.07;66.74;100375.09;5018403;28;20061;-79
2022/09/14 00:36:24;;;;;;;9.10;1.75;;;;;;;14.22;67.86;100237.56;5009697;28;20037;-78
2022/09/14 00:38:50;;;;;;;2.72;1.65;;;;;;;14.32;67.75;100255.84;5008918;28;20033;-80
2022/09/14 00:41:19;;;;;;;3.42;1.50;;;;;;;14.05;68.93;100257.22;5008785;28;20049;-78
2022/09/14 00:44:09;;;;;;;2.13;1.27;;;;;;;14.76;68.65;100380.09;4997128;28;20074;-79
2022/09/14 00:46:37;;;;;;;3.78;2.08;;;;;;;14.74;69.24;100371.31;4993697;28;20050;-81
2022/09/14 00:49:07;;;;;;;3.55;1.90;;;;;;;14.54;69.72;100367.28;5008857;28;20046;-76
2022/09/14 00:51:35;;;;;;;9.35;2.08;;;;;;;14.06;69.91;100305.56;5009544;28;20040;-81
2022/09/14 00:54:03;;;;;;;3.67;1.58;;;;;;;14.46;68.67;100315.47;4993245;28;20104;-79
2022/09/14 00:56:29;;;;;;;3.03;2.05;;;;;;;14.08;70.32;100272.97;5028761;28;20156;-80
2022/09/14 00:58:57;;;;;;;5.07;2.28;;;;;;;14.63;71.09;100353.00;5021975;28;20056;-80
2022/09/14 01:01:25;;;;;;;3.42;1.52;;;;;;;14.78;70.52;100373.88;5008599;28;20056;-81
2022/09/14 01:03:50;;;;;;;5.32;1.83;;;;;;;14.45;70.15;100367.41;5008633;28;20518;-78
2022/09/14 01:06:47;;;;;;;3.53;2.08;;;;;;;14.13;70.59;100345.00;5009643;28;20041;-79
2022/09/14 01:09:27;;;;;;;4.88;2.13;;;;;;;14.45;70.83;100370.03;4981952;28;20050;-81
2022/09/14 01:12:33;;;;;;;5.28;2.35;;;;;;;14.49;70.49;100355.00;5021934;28;20140;-80
2022/09/14 01:15:16;;;;;;;3.03;2.03;;;;;;;13.70;69.78;100257.78;4950901;28;20054;-80
2022/09/14 01:17:57;;;;;;;3.57;2.07;;;;;;;14.34;70.61;100370.19;4987325;28;20078;-80
2022/09/14 01:20:33;;;;;;;3.50;2.13;;;;;;;14.15;70.50;100308.06;4988766;28;20078;-80
2022/09/14 01:22:58;;;;;;;3.58;1.83;;;;;;;14.39;74.00;100356.94;4989205;28;20141;-80
2022/09/14 01:25:58;;;;;;;6.82;1.90;;;;;;;14.42;74.27;100363.91;5017799;28;20049;-80
2022/09/14 01:28:47;;;;;;;3.67;1.50;;;;;;;14.43;73.36;100353.34;5010000;28;20124;-79
2022/09/14 01:31:31;;;;;;;7.00;2.45;;;;;;;13.68;72.94;100228.78;4986453;28;20037;-80
2022/09/14 01:34:11;;;;;;;13.20;1.90;;;;;;;14.07;73.09;100294.09;5018970;28;20064;-81
2022/09/14 01:36:42;;;;;;;6.05;2.08;;;;;;;13.58;75.25;100223.66;5008594;28;20077;-81
2022/09/14 01:39:09;;;;;;;4.05;1.67;;;;;;;14.15;76.34;100343.22;5008153;28;20088;-79
2022/09/14 01:41:36;;;;;;;5.20;2.20;;;;;;;13.97;76.06;100306.56;4990073;28;20050;-80
2022/09/14 01:44:20;;;;;;;3.78;1.77;;;;;;;13.49;74.66;100236.09;4993595;28;20406;-79
2022/09/14 01:46:56;;;;;;;4.47;2.20;;;;;;;13.33;73.83;100213.50;4988443;28;20046;-81
2022/09/14 01:49:31;;;;;;;7.28;2.10;;;;;;;14.25;72.78;100351.88;4988352;28;20101;-79
2022/09/14 01:52:13;;;;;;;9.63;2.92;;;;;;;13.94;73.47;100319.81;4988231;28;20038;-80
2022/09/14 01:54:50;;;;;;;3.65;2.15;;;;;;;14.19;73.96;100344.06;4997116;28;20117;-81
2022/09/14 01:57:31;;;;;;;5.80;2.13;;;;;;;14.25;73.00;100348.38;5008129;28;20058;-80
2022/09/14 02:00:04;;;;;;;4.38;2.55;;;;;;;14.08;73.33;100346.88;5007764;28;20050;-80
2022/09/14 02:02:32;;;;;;;5.60;1.80;;;;;;;14.09;74.28;100348.63;4989413;28;20065;-81
2022/09/14 02:05:08;;;;;;;5.97;2.20;;;;;;;14.21;73.77;100346.66;5007552;28;20073;-80
2022/09/14 02:07:36;;;;;;;5.03;1.95;;;;;;;14.16;74.33;100357.28;4989746;28;20045;-79
2022/09/14 02:10:05;;;;;;;8.60;2.67;;;;;;;13.80;74.88;100298.94;4989774;28;20042;-80
2022/09/14 02:12:31;;;;;;;4.88;2.20;;;;;;;12.99;75.67;100213.06;5006393;28;20029;-81
2022/09/14 02:14:57;;;;;;;3.75;2.17;;;;;;;13.55;76.10;100339.72;4987326;28;20521;-79
2022/09/14 02:17:22;;;;;;;6.18;3.08;;;;;;;13.56;76.84;100352.91;5002990;28;20459;-80
2022/09/14 02:19:56;;;;;;;3.88;2.25;;;;;;;13.41;77.07;100332.84;4996968;28;20644;-80
2022/09/14 02:22:23;;;;;;;5.60;3.05;;;;;;;12.34;76.94;100177.00;4989263;28;20524;-80
2022/09/14 02:24:49;;;;;;;8.00;2.50;;;;;;;13.27;77.07;100329.50;5006657;28;20112;-80
2022/09/14 02:27:15;;;;;;;4.35;2.47;;;;;;;12.83;76.96;100229.06;4989992;28;20141;-80
2022/09/14 02:29:41;;;;;;;5.55;2.80;;;;;;;13.27;77.89;100324.22;5007089;28;20050;-79
2022/09/14 02:32:37;;;;;;;5.90;2.75;;;;;;;13.30;78.30;100348.81;5006830;28;20087;-79
2022/09/14 02:35:24;;;;;;;5.13;3.25;;;;;;;13.20;78.59;100351.53;5024254;28;20060;-80
2022/09/14 02:37:49;;;;;;;7.93;3.05;;;;;;;13.20;78.30;100356.81;5027082;28;20069;-79
2022/09/14 02:40:36;;;;;;;7.32;3.40;;;;;;;12.59;78.34;100239.88;4989661;28;20772;-80
2022/09/14 02:43:30;;;;;;;6.55;3.17;;;;;;;13.26;78.16;100354.97;5014056;28;20052;-80
2022/09/14 02:46:23;;;;;;;27.85;3.22;;;;;;;13.24;78.33;100338.31;5007020;28;20053;-78
2022/09/14 02:49:21;;;;;;;7.30;2.92;;;;;;;13.38;77.93;100351.34;5007644;28;20045;-80
2022/09/14 02:51:55;;;;;;;5.93;2.60;;;;;;;13.31;77.85;100352.31;5002381;28;20056;-80
2022/09/14 02:54:53;;;;;;;4.93;2.67;;;;;;;13.15;78.49;100322.63;5007534;28;20077;-78
2022/09/14 02:57:18;;;;;;;11.93;3.70;;;;;;;12.40;78.68;100210.25;5010896;28;20525;-79
2022/09/14 02:59:44;;;;;;;7.43;3.22;;;;;;;13.29;78.51;100340.94;4993065;28;20038;-79
2022/09/14 03:02:09;;;;;;;10.20;2.55;;;;;;;13.08;78.70;100310.41;5010945;28;20695;-79
2022/09/14 03:04:35;;;;;;;6.07;3.45;;;;;;;11.85;78.12;100098.59;5036423;28;20034;-76
2022/09/14 03:07:00;;;;;;;5.43;3.40;;;;;;;12.39;78.96;100174.31;5036667;28;20014;-76
2022/09/14 03:09:25;;;;;;;6.53;3.03;;;;;;;13.23;79.03;100333.94;4995258;28;20065;-79
2022/09/14 03:11:51;;;;;;;8.35;3.20;;;;;;;12.56;78.86;100203.94;5011086;28;20050;-79
2022/09/14 03:14:16;;;;;;;7.25;3.70;;;;;;;12.99;79.84;100345.63;4994853;28;20502;-79
2022/09/14 03:16:42;;;;;;;6.97;3.70;;;;;;;13.14;80.08;100349.00;4992579;28;20054;-76
2022/09/14 03:19:11;;;;;;;5.65;3.08;;;;;;;12.67;78.37;100238.91;5009221;28;20042;-78
2022/09/14 03:21:38;;;;;;;5.15;3.25;;;;;;;13.06;79.23;100318.34;5010915;28;20613;-79
2022/09/14 03:24:03;;;;;;;7.07;3.10;;;;;;;13.21;79.95;100338.34;4992400;28;20100;-78
2022/09/14 03:26:29;;;;;;;6.40;3.33;;;;;;;13.01;79.54;100327.19;4992405;28;20420;-80
2022/09/14 03:28:58;;;;;;;7.10;3.08;;;;;;;13.25;80.33;100365.53;4992094;28;20065;-81
2022/09/14 03:31:25;;;;;;;4.57;3.00;;;;;;;13.28;80.82;100355.88;5009572;28;20042;-79
2022/09/14 03:33:55;;;;;;;5.13;3.17;;;;;;;13.26;81.23;100372.56;5016441;28;20065;-80
2022/09/14 03:36:22;;;;;;;6.65;3.25;;;;;;;12.64;81.17;100269.66;5012140;28;20378;-79
2022/09/14 03:38:50;;;;;;;5.43;3.28;;;;;;;12.53;81.49;100242.59;5030099;28;20126;-79
2022/09/14 03:41:16;;;;;;;7.75;3.15;;;;;;;13.05;81.40;100350.84;5029648;28;20045;-79
2022/09/14 03:43:42;;;;;;;8.57;3.80;;;;;;;13.26;81.37;100389.25;5008151;28;20056;-80
2022/09/14 03:46:13;;;;;;;7.30;3.67;;;;;;;13.27;81.12;100384.84;4992033;28;20052;-80
2022/09/14 03:48:39;;;;;;;8.73;3.92;;;;;;;13.31;80.59;100373.41;5025242;28;20033;-80
2022/09/14 03:51:07;;;;;;;15.45;3.50;;;;;;;12.55;80.80;100270.63;5029576;28;20123;-78
2022/09/14 03:53:33;;;;;;;4.85;3.00;;;;;;;13.05;81.18;100368.41;5011423;28;20049;-79
2022/09/14 03:55:59;;;;;;;9.23;3.70;;;;;;;12.42;80.98;100267.25;5029647;28;20179;-78
2022/09/14 03:58:25;;;;;;;8.93;3.50;;;;;;;12.33;81.00;100259.44;5029451;28;20038;-78
2022/09/14 04:00:50;;;;;;;7.03;3.35;;;;;;;12.93;81.01;100337.81;5029431;28;20037;-79
2022/09/14 04:03:16;;;;;;;9.85;3.45;;;;;;;12.37;80.76;100245.38;5029901;28;20057;-79
2022/09/14 04:05:44;;;;;;;6.25;3.40;;;;;;;12.87;81.63;100369.47;5010545;28;20056;-80
2022/09/14 04:08:10;;;;;;;9.20;4.03;;;;;;;12.96;81.39;100344.78;5029470;28;20085;-79
2022/09/14 04:10:37;;;;;;;7.95;3.60;;;;;;;13.09;81.01;100401.75;5028775;28;20839;-81
2022/09/14 04:13:02;;;;;;;13.85;4.25;;;;;;;12.53;81.35;100292.59;4994977;28;20128;-80
2022/09/14 04:15:28;;;;;;;5.85;3.20;;;;;;;13.10;81.07;100382.41;5029249;28;20036;-80
2022/09/14 04:17:53;;;;;;;11.52;4.35;;;;;;;12.87;80.47;100367.69;5027224;28;20056;-80
2022/09/14 04:20:19;;;;;;;6.30;3.33;;;;;;;12.91;81.32;100380.84;5029492;28;20046;-79
2022/09/14 04:22:45;;;;;;;27.65;4.13;;;;;;;12.75;81.10;100380.13;5029224;28;20048;-81
2022/09/14 04:25:11;;;;;;;13.10;3.63;;;;;;;12.80;80.52;100381.81;5010037;28;20088;-80
2022/09/14 04:27:37;;;;;;;6.97;4.07;;;;;;;12.95;80.27;100390.47;5028900;28;20037;-80
2022/09/14 04:30:04;;;;;;;9.00;3.88;;;;;;;12.74;79.76;100325.72;5028927;28;20136;-78
2022/09/14 04:32:30;;;;;;;9.32;3.67;;;;;;;13.09;79.60;100384.16;5028517;28;20103;-80
2022/09/14 04:34:59;;;;;;;10.77;6.38;;;;;;;13.15;80.13;100395.53;5028220;28;20132;-80
2022/09/14 04:37:25;;;;;;;8.07;3.95;;;;;;;12.20;81.13;100250.81;5028765;28;20053;-80
2022/09/14 04:39:50;;;;;;;11.93;4.20;;;;;;;13.14;80.09;100381.47;5010573;28;20025;-80
2022/09/14 04:42:16;;;;;;;12.60;3.72;;;;;;;12.61;80.05;100281.09;5028541;28;20044;-79
2022/09/14 04:44:41;;;;;;;8.20;4.32;;;;;;;12.34;80.06;100255.03;5022555;28;20053;-79
2022/09/14 04:47:06;;;;;;;10.68;4.80;;;;;;;12.38;81.06;100312.88;5026843;28;20071;-79
2022/09/14 04:49:33;;;;;;;12.43;4.68;;;;;;;11.77;81.20;100169.63;5028097;28;20041;-80
2022/09/14 04:51:59;;;;;;;7.95;4.10;;;;;;;13.38;79.51;100395.28;5020128;28;20545;-78
2022/09/14 04:54:24;;;;;;;9.48;4.38;;;;;;;13.32;80.52;100398.00;5041138;28;20037;-80
2022/09/14 04:56:49;;;;;;;8.65;4.15;;;;;;;13.24;79.77;100369.06;5027812;28;20761;-81
2022/09/14 04:59:15;;;;;;;10.98;6.10;;;;;;;13.32;80.24;100390.94;5027992;28;20430;-79
2022/09/14 05:01:43;;;;;;;5.72;3.33;;;;;;;13.45;80.65;100386.41;5027641;28;20060;-80
2022/09/14 05:04:13;;;;;;;7.68;4.60;;;;;;;13.46;80.65;100402.22;5027770;28;20072;-79
2022/09/14 05:06:40;;;;;;;8.77;4.78;;;;;;;13.68;78.94;100407.22;5029565;28;20106;-81
2022/09/14 05:09:18;;;;;;;11.70;5.70;;;;;;;13.32;79.90;100369.00;5027963;28;20068;-79
2022/09/14 05:11:44;;;;;;;11.15;6.13;;;;;;;13.55;80.06;100389.81;5028786;28;20045;-81
2022/09/14 05:14:12;;;;;;;7.10;4.30;;;;;;;13.05;78.99;100258.63;5026958;28;20560;-80
2022/09/14 05:16:39;;;;;;;17.58;8.05;;;;;;;12.94;79.12;100247.34;5027894;28;20056;-82
2022/09/14 05:19:08;;;;;;;11.05;6.55;;;;;;;13.08;78.59;100261.22;4998425;28;20049;-78
2022/09/14 05:21:36;;;;;;;10.20;5.88;;;;;;;14.59;76.65;100398.03;5024858;28;20421;-77
2022/09/14 05:24:17;;;;;;;13.50;6.30;;;;;;;15.18;73.38;100377.56;5037618;28;20056;-81
2022/09/14 05:26:44;;;;;;;7.72;4.38;;;;;;;16.45;68.10;100358.00;5006380;28;20098;-78
2022/09/14 05:29:17;;;;;;;20.25;5.82;;;;;;;17.24;66.23;100380.69;5023424;28;20041;-78
2022/09/14 05:31:45;;;;;;;12.45;4.45;;;;;;;16.85;63.87;100265.09;5027446;28;20045;-79
2022/09/14 05:34:11;;;;;;;12.40;5.65;;;;;;;18.10;62.26;100394.13;5027521;28;20045;-78
2022/09/14 05:36:37;;;;;;;9.35;5.47;;;;;;;17.98;59.79;100288.25;5027936;28;20586;-79
2022/09/14 05:39:04;;;;;;;10.77;6.82;;;;;;;18.79;59.23;100405.16;5027537;28;20187;-80
2022/09/14 05:41:29;;;;;;;8.48;5.78;;;;;;;18.43;58.70;100295.63;5009138;28;20077;-80
2022/09/14 05:43:55;;;;;;;9.60;4.45;;;;;;;19.03;57.42;100370.66;4987023;28;20053;-78
2022/09/14 05:46:21;;;;;;;10.15;4.43;;;;;;;19.44;57.52;100409.06;4988115;28;20154;-77
2022/09/14 05:48:50;;;;;;;14.10;4.95;;;;;;;19.04;55.58;100297.94;4986431;28;20387;-80
2022/09/14 05:51:19;;;;;;;13.20;5.80;;;;;;;18.99;55.16;100258.22;4988390;28;20072;-78
2022/09/14 05:53:53;;;;;;;7.22;3.67;;;;;;;19.99;53.92;100390.16;4989181;28;20041;-80
2022/09/14 05:56:20;;;;;;;10.80;3.60;;;;;;;19.61;55.78;100416.44;5007542;28;20510;-79
2022/09/14 05:58:46;;;;;;;10.93;3.95;;;;;;;18.79;54.51;100301.47;5007692;28;20132;-80
2022/09/14 06:01:21;;;;;;;19.00;4.60;;;;;;;18.49;55.19;100274.16;5007132;28;20053;-79
2022/09/14 06:03:48;;;;;;;9.35;5.00;;;;;;;18.67;57.13;100344.41;5008229;28;20041;-80
2022/09/14 06:06:16;;;;;;;7.00;3.10;;;;;;;18.84;57.68;100397.03;4991088;28;20040;-81
2022/09/14 06:08:42;;;;;;;14.85;3.30;;;;;;;18.13;57.46;100306.38;5007824;28;20045;-81
2022/09/14 06:11:13;;;;;;;10.80;3.88;;;;;;;18.70;57.16;100414.28;5006827;28;20509;-80
2022/09/14 06:13:40;;;;;;;13.75;3.58;;;;;;;18.02;57.64;100306.69;4997604;28;20050;-80
2022/09/14 06:16:12;;;;;;;9.18;3.85;;;;;;;17.82;58.49;100325.06;4993772;28;20955;-81
2022/09/14 06:18:39;;;;;;;7.63;3.40;;;;;;;18.53;58.93;100440.56;4985692;28;20057;-81
2022/09/14 06:21:05;;;;;;;8.45;4.05;;;;;;;18.03;60.53;100424.44;5006849;28;20058;-81
2022/09/14 06:23:31;;;;;;;6.10;4.18;;;;;;;18.13;58.86;100426.75;5020867;28;20053;-80
2022/09/14 06:25:59;;;;;;;15.85;4.03;;;;;;;18.30;60.93;100438.63;5007009;28;20050;-82
2022/09/14 06:28:26;;;;;;;12.07;5.45;;;;;;;18.14;59.87;100425.84;5007076;28;20053;-81
2022/09/14 06:30:52;;;;;;;7.82;4.00;;;;;;;17.51;60.14;100310.94;5006930;28;20082;-80
2022/09/14 06:33:18;;;;;;;6.25;4.10;;;;;;;17.43;59.61;100307.63;4989873;28;20084;-80
2022/09/14 06:36:13;;;;;;;24.20;8.10;;;;;;;17.75;60.86;100393.38;5025497;28;20188;-79
2022/09/14 06:38:40;;;;;;;11.38;5.10;;;;;;;17.48;63.23;100328.72;5026304;28;20037;-80
2022/09/14 06:41:08;;;;;;;15.88;5.30;;;;;;;17.33;62.57;100308.81;5008845;28;20053;-79
2022/09/14 06:43:37;;;;;;;14.98;4.63;;;;;;;17.12;61.82;100320.06;5018022;28;20053;-81
2022/09/14 06:46:18;;;;;;;17.15;4.32;;;;;;;17.53;62.35;100406.38;5006984;28;20038;-80
2022/09/14 06:48:53;;;;;;;22.05;4.93;;;;;;;17.01;62.15;100289.41;5006543;28;20034;-81
2022/09/14 06:51:56;;;;;;;6.75;4.13;;;;;;;17.37;62.05;100392.72;5007364;28;20122;-79
2022/09/14 06:54:22;;;;;;;10.70;4.53;;;;;;;17.41;62.90;100412.91;4996010;28;20045;-79
2022/09/14 06:56:48;;;;;;;5.95;3.72;;;;;;;17.35;62.20;100404.25;5025779;28;20057;-80
2022/09/14 06:59:15;;;;;;;13.05;4.90;;;;;;;17.40;63.24;100379.34;5026352;28;20045;-81
2022/09/14 07:01:44;;;;;;;9.45;5.13;;;;;;;17.95;62.37;100419.34;5025905;28;20549;-79
2022/09/14 07:04:13;;;;;;;11.30;5.95;;;;;;;17.83;61.36;100388.72;5026010;28;20091;-80
2022/09/14 07:06:47;;;;;;;10.07;5.53;;;;;;;17.91;61.21;100413.25;5026654;28;20092;-80
2022/09/14 07:09:13;;;;;;;15.63;5.38;;;;;;;17.22;61.00;100279.97;5025978;28;20101;-80
2022/09/14 07:11:39;;;;;;;9.57;4.57;;;;;;;17.65;61.85;100317.59;5024918;28;20213;-81
2022/09/14 07:14:06;;;;;;;8.85;5.07;;;;;;;18.27;60.69;100399.75;5015113;28;20050;-81
2022/09/14 07:16:33;;;;;;;10.10;5.38;;;;;;;17.34;59.75;100291.97;5016479;28;20041;-80
2022/09/14 07:19:01;;;;;;;10.48;4.63;;;;;;;17.86;60.87;100375.38;5006527;28;20501;-80
2022/09/14 07:21:33;;;;;;;8.90;4.78;;;;;;;17.63;60.50;100279.59;5008952;28;20493;-81
2022/09/14 07:23:59;;;;;;;22.40;5.70;;;;;;;18.42;60.00;100401.03;5025427;28;20103;-80
2022/09/14 07:26:28;;;;;;;12.43;4.93;;;;;;;18.38;59.43;100398.53;5025997;28;20125;-80
2022/09/14 07:28:58;;;;;;;14.27;5.25;;;;;;;18.31;59.43;100398.72;5025978;28;20091;-80
2022/09/14 07:31:25;;;;;;;10.35;5.35;;;;;;;18.63;58.89;100412.75;5025930;28;20099;-82
2022/09/14 07:33:53;;;;;;;15.70;6.00;;;;;;;18.66;59.45;100412.66;5025532;28;20053;-79
2022/09/14 07:36:20;;;;;;;13.32;6.55;;;;;;;18.13;57.65;100304.56;5026591;28;20552;-80
2022/09/14 07:38:46;;;;;;;12.82;6.07;;;;;;;18.89;58.25;100411.88;5008615;28;20061;-83
2022/09/14 07:41:11;;;;;;;10.63;5.03;;;;;;;18.28;58.40;100289.03;5027408;28;20069;-80
2022/09/14 07:43:37;;;;;;;10.63;6.30;;;;;;;18.65;59.33;100410.91;5007507;28;20494;-82
2022/09/14 07:46:04;;;;;;;8.90;5.30;;;;;;;18.18;57.97;100319.50;5010148;28;20041;-81
2022/09/14 07:48:31;;;;;;;13.23;7.15;;;;;;;18.78;57.80;100395.47;5010591;28;20062;-80
2022/09/14 07:51:06;;;;;;;13.00;5.68;;;;;;;18.49;57.96;100336.13;5009707;28;20081;-81
2022/09/14 07:53:34;;;;;;;22.85;6.70;;;;;;;18.47;57.78;100294.59;5009835;28;20042;-81
2022/09/14 07:56:00;;;;;;;19.88;6.95;;;;;;;19.22;57.48;100414.28;5028958;28;20461;-80
2022/09/14 07:58:27;;;;;;;14.50;6.75;;;;;;;19.30;56.89;100406.06;5029244;28;20037;-81
2022/09/14 08:01:01;;;;;;;11.85;7.63;;;;;;;19.26;57.27;100399.97;5011266;28;20203;-81
2022/09/14 08:03:28;;;;;;;9.30;6.47;;;;;;;19.18;56.64;100364.78;5030132;28;20069;-81
2022/09/14 08:06:01;;;;;;;17.65;7.50;;;;;;;19.43;57.11;100386.03;5032322;28;20053;-81
2022/09/14 08:08:30;;;;;;;;;;;;;;;19.61;56.66;100385.34;5029986;28;20095;-81
2022/09/14 08:11:06;;;;;;;8.82;4.75;;;;;;;18.86;54.94;100257.78;5037462;28;19925;-81
2022/09/14 08:13:34;;;;;;;8.43;4.97;;;;;;;19.57;55.81;100366.88;5003614;28;20166;-80
2022/09/14 08:16:00;;;;;;;11.55;7.50;;;;;;;19.44;55.63;100339.88;4989338;28;20446;-80
2022/09/14 08:18:27;;;;;;;10.18;5.15;;;;;;;19.84;55.85;100374.78;5027557;28;20033;-81
2022/09/14 08:20:53;;;;;;;20.00;5.70;;;;;;;19.19;55.06;100242.34;5028797;28;20050;-80
2022/09/14 08:23:18;;;;;;;10.27;4.60;;;;;;;19.10;54.89;100256.00;5028360;28;20056;-81
2022/09/14 08:25:44;;;;;;;32.35;4.88;;;;;;;19.35;55.00;100273.69;5021498;28;20380;-82
2022/09/14 08:28:09;;;;;;;18.02;4.90;;;;;;;19.33;53.96;100279.06;5028570;28;20045;-81
2022/09/14 08:30:35;;;;;;;10.55;3.90;;;;;;;19.81;54.22;100351.81;5029103;28;20061;-81
2022/09/14 08:33:00;;;;;;;15.80;3.85;;;;;;;20.06;54.98;100367.66;5029067;28;20049;-80
2022/09/14 08:35:26;;;;;;;15.95;4.60;;;;;;;19.98;52.74;100375.09;5027698;28;20060;-81
2022/09/14 08:37:52;;;;;;;16.65;4.38;;;;;;;19.33;53.31;100259.59;5028793;28;20053;-81
2022/09/14 08:40:18;;;;;;;9.23;4.22;;;;;;;20.18;53.62;100372.53;5010591;28;20056;-80
2022/09/14 08:42:46;;;;;;;9.18;4.40;;;;;;;19.57;52.82;100261.31;5009175;28;20029;-82
2022/09/14 08:45:15;;;;;;;15.98;4.38;;;;;;;19.86;52.71;100362.28;5007421;28;20033;-79
2022/09/14 08:47:42;;;;;;;11.43;3.90;;;;;;;20.12;53.25;100366.56;5008730;28;20124;-80
2022/09/14 08:50:17;;;;;;;8.07;3.85;;;;;;;19.89;52.71;100327.53;4990712;28;20096;-80
2022/09/14 08:52:46;;;;;;;5.65;2.90;;;;;;;20.36;52.72;100349.56;5007862;28;20122;-81
2022/09/14 08:55:36;;;;;;;5.55;3.00;;;;;;;20.53;54.00;100348.84;5021325;28;20037;-80
2022/09/14 08:58:29;;;;;;;9.70;3.58;;;;;;;20.39;54.17;100349.47;5028523;28;20046;-80
2022/09/14 09:01:11;;;;;;;12.07;4.13;;;;;;;20.49;53.70;100362.41;5027932;28;20041;-80
2022/09/14 09:04:02;;;;;;;9.70;3.83;;;;;;;20.07;53.57;100249.53;5029137;28;20435;-79
2022/09/14 09:06:37;;;;;;;10.95;5.03;;;;;;;20.22;52.00;100238.22;5029031;28;20484;-80
2022/09/14 09:09:21;;;;;;;7.40;3.45;;;;;;;20.90;52.90;100362.47;5027840;28;20052;-79
2022/09/14 09:11:50;;;;;;;8.60;4.22;;;;;;;20.74;51.05;100339.09;5027860;28;20057;-79
2022/09/14 09:14:22;;;;;;;6.97;4.05;;;;;;;20.87;52.45;100350.97;5013889;28;20069;-79
2022/09/14 09:16:52;;;;;;;9.20;4.57;;;;;;;20.83;51.65;100337.84;5017408;28;20488;-80
2022/09/14 09:19:27;;;;;;;9.70;3.45;;;;;;;20.30;51.44;100250.34;5028203;28;20454;-83
2022/09/14 09:21:53;;;;;;;6.68;3.95;;;;;;;21.20;50.33;100346.88;5027659;28;20113;-80
2022/09/14 09:24:42;;;;;;;6.05;3.00;;;;;;;21.24;50.13;100337.81;5027300;28;20788;-81
2022/09/14 09:27:10;;;;;;;8.88;4.20;;;;;;;20.75;50.18;100262.66;5027874;28;20041;-81
2022/09/14 09:29:35;;;;;;;9.30;3.80;;;;;;;20.91;49.79;100289.47;5027793;28;20056;-80
2022/09/14 09:32:04;;;;;;;20.98;4.60;;;;;;;21.41;51.26;100339.75;5027944;28;20037;-79
2022/09/14 09:34:36;;;;;;;7.78;2.83;;;;;;;21.05;48.67;100282.59;5027267;28;20062;-81
2022/09/14 09:37:18;;;;;;;16.20;5.38;;;;;;;20.95;49.05;100248.41;5027543;28;20049;-82
2022/09/14 09:39:44;;;;;;;20.63;5.40;;;;;;;21.63;49.25;100361.84;5018172;28;20037;-82
2022/09/14 09:42:24;;;;;;;21.42;4.28;;;;;;;21.52;50.14;100341.91;5025424;28;20452;-80
2022/09/14 09:44:54;;;;;;;16.77;3.33;;;;;;;21.78;48.70;100375.41;5025326;28;20056;-80
2022/09/14 09:47:29;;;;;;;8.95;3.83;;;;;;;21.77;48.47;100368.31;5008937;28;20115;-81
2022/09/14 09:50:14;;;;;;;7.15;3.15;;;;;;;20.90;50.27;100245.94;5015609;28;20505;-81
2022/09/14 09:52:58;;;;;;;15.38;4.65;;;;;;;21.50;50.21;100332.16;5027246;28;20037;-81
2022/09/14 09:55:38;;;;;;;20.50;4.78;;;;;;;21.33;48.65;100227.06;5016257;28;20053;-80
2022/09/14 09:58:40;;;;;;;20.77;5.97;;;;;;;22.09;49.39;100353.44;5008713;28;20083;-75
2022/09/14 10:01:18;;;;;;;6.82;3.83;;;;;;;21.20;47.59;100210.78;4925747;29;20047;-79
2022/09/14 10:04:00;;;;;;;7.43;2.90;;;;;;;21.97;48.46;100338.84;4994120;28;20050;-81
2022/09/14 10:06:26;;;;;;;6.03;3.70;;;;;;;22.18;46.56;100330.75;5007291;28;20037;-82
2022/09/14 10:08:56;;;;;;;8.60;4.25;;;;;;;21.97;46.96;100303.25;5009441;28;21248;-81
2022/09/14 10:11:36;;;;;;;7.18;2.85;;;;;;;21.40;46.36;100197.41;5026338;28;20050;-80
2022/09/14 10:14:04;;;;;;;4.95;2.88;;;;;;;22.13;46.56;100309.59;5015323;28;20056;-80
2022/09/14 10:16:37;;;;;;;5.15;2.90;;;;;;;21.63;45.99;100206.97;5016800;28;20045;-80
2022/09/14 10:19:03;;;;;;;;;;;;;;;22.44;47.87;100326.78;5026091;28;20053;-81
2022/09/14 10:21:30;;;;;;;5.95;2.42;;;;;;;22.26;44.70;100251.03;5027508;28;20365;-81
2022/09/14 10:24:21;;;;;;;8.23;2.80;;;;;;;22.82;44.14;100324.81;5008107;28;20124;-80
2022/09/14 10:26:47;;;;;;;6.82;3.15;;;;;;;22.21;45.04;100196.97;5004543;28;20080;-82
2022/09/14 10:29:41;;;;;;;7.38;2.50;;;;;;;23.00;43.33;100317.66;5006729;28;20399;-80
2022/09/14 10:32:18;;;;;;;6.53;3.53;;;;;;;22.76;45.58;100192.22;5007016;28;20061;-80
2022/09/14 10:34:44;;;;;;;5.13;2.25;;;;;;;23.96;43.18;100318.66;5006521;28;20058;-80
2022/09/14 10:37:19;;;;;;;15.50;2.78;;;;;;;24.11;41.80;100268.66;5006681;28;20048;-80
2022/09/14 10:40:15;;;;;;;6.35;3.50;;;;;;;24.82;43.35;100316.31;4997523;28;20109;-81
2022/09/14 10:42:57;;;;;;;6.32;2.53;;;;;;;24.30;40.01;100308.66;5017418;28;20041;-75
2022/09/14 10:45:41;;;;;;;4.30;2.20;;;;;;;24.78;40.67;100304.91;5007019;28;20040;-79
2022/09/14 10:48:49;;;;;;;6.78;2.70;;;;;;;25.03;40.37;100276.56;5006798;28;20061;-83
2022/09/14 10:51:43;;;;;;;7.05;3.08;;;;;;;25.17;39.07;100307.88;5006621;28;20050;-81
2022/09/14 10:54:38;;;;;;;19.15;3.88;;;;;;;25.34;40.43;100267.44;5010850;28;20132;-82
2022/09/14 10:57:33;;;;;;;11.00;2.75;;;;;;;24.81;38.16;100181.22;5026159;28;20545;-77
2022/09/14 11:00:35;;;;;;;5.68;2.00;;;;;;;24.97;37.74;100288.50;5006295;28;20054;-80
2022/09/14 11:03:29;;;;;;;4.10;2.35;;;;;;;24.76;38.65;100284.47;4974898;28;20061;-84
2022/09/14 11:06:32;;;;;;;8.73;3.20;;;;;;;25.18;38.45;100286.34;5013666;28;20191;-82
2022/09/14 11:09:05;;;;;;;;;;;;;;;25.28;39.63;100281.25;4964993;28;20150;-80
2022/09/14 11:12:06;;;;;;;4.03;2.13;;;;;;;24.95;38.41;100255.53;4975206;28;19945;-81
2022/09/14 11:14:59;;;;;;;7.70;2.25;;;;;;;24.64;37.13;100162.66;5000271;28;20445;-81
2022/09/14 11:17:40;;;;;;;7.10;2.42;;;;;;;24.95;37.06;100252.00;5026281;28;20033;-82
2022/09/14 11:20:14;;;;;;;7.28;2.60;;;;;;;25.20;36.02;100264.78;5030921;28;20042;-82
2022/09/14 11:22:53;;;;;;;7.03;2.13;;;;;;;25.00;36.02;100226.56;5012269;28;20355;-80
2022/09/14 11:25:47;;;;;;;16.08;5.47;;;;;;;25.14;37.32;100246.31;5028074;28;20049;-80
2022/09/14 11:28:22;;;;;;;5.50;3.08;;;;;;;24.68;37.39;100155.25;4985191;28;20042;-81
2022/09/14 11:30:54;;;;;;;6.53;2.08;;;;;;;24.91;37.38;100189.59;5029773;28;20040;-80
2022/09/14 11:33:26;;;;;;;10.80;2.05;;;;;;;25.31;36.90;100235.41;5030076;28;20068;-80
2022/09/14 11:35:59;;;;;;;3.67;1.58;;;;;;;25.36;35.57;100219.00;5014642;28;20054;-81
2022/09/14 11:38:34;;;;;;;7.88;1.70;;;;;;;25.12;36.00;100208.81;5009968;28;20359;-81
2022/09/14 11:41:21;;;;;;;11.05;2.08;;;;;;;25.36;35.64;100227.91;5010106;28;20053;-79
2022/09/14 11:43:56;;;;;;;10.68;2.92;;;;;;;24.57;35.83;100121.94;5008199;28;20098;-79
2022/09/14 11:46:30;;;;;;;3.33;2.53;;;;;;;25.27;36.30;100236.56;5009499;28;20056;-82
2022/09/14 11:48:55;;;;;;;6.55;2.13;;;;;;;25.40;35.93;100231.25;5009990;28;20034;-80